首页
METAR-TAF:

METAR-TAF

机场 :

Southwest Oregon Regional Airport

North Bend, 俄勒冈州, 美国

纬度: 43-25N, 经度: 124-15W, 海拔: 4米

当前天气观测

该预报发布于13分钟前的01:56 UTC
风速18节,风向,有时为27节阵风
温度 13°C
湿度 72%
气压 1019 hPa
能見度: 16.1公里
天空无云

METAR: KOTH 010156Z 36018G27KT 10SM CLR 13/08 A3008 RMK AO2 PK WND 36028/0124 SLP186 T01330083

时间: 19:09 (02:09 UTC)

预报

该预报发布于2小时和49分钟前的23:20 UTC
预报有效从01日的 00点(UTC)到 01日的 24点(UTC)
风速18节,风向,有时为26节阵风
能見度: 10公里
散云层高于5000英尺
多云层高于25000英尺
从 01日的 0400点(UTC)
风速11节,风向
能見度: 10公里
多云层高于25000英尺
从 01日的 0600点(UTC)
风速4节,风向北转东北
能見度: 10公里
散云层高于25000英尺
从 01日的 1600点(UTC)
风速9节,风向
能見度: 10公里
天空无云
从 01日的 1900点(UTC)
风速17节,风向,有时为24节阵风
能見度: 10公里
天空无云

TAF: KOTH 312320Z 0100/0124 36018G26KT P6SM SCT050 BKN250 FM010400 36011KT P6SM BKN250 FM010600 03004KT P6SM SCT250 FM011600 35009KT P6SM SKC FM011900 35017G24KT P6SM SKC

超过4000个机场的气象观测和天气预报(METAR&TAF报告)。

可查询的气象台以黄色和红色小点在地图上表示。

将鼠标移到小点上方,可查看气象台名称。

然后点击查看天气观测和预报。

如需切换地图:点击带黑十字的绿色按钮放大地图;点击带横线的绿色按钮缩小地图;或者点击绿色箭头查看邻近地区的地图。


METAR-TAF: